createdAt,value
2022-09-12T00:00:50.553Z,985.978
2022-09-12T00:02:50.574Z,985.946
2022-09-12T00:04:49.788Z,985.938
2022-09-12T00:06:49.849Z,985.945
2022-09-12T00:08:49.844Z,985.898
2022-09-12T00:10:50.719Z,985.966
2022-09-12T00:12:50.589Z,985.939
2022-09-12T00:14:50.664Z,985.903
2022-09-12T00:16:50.855Z,985.900
2022-09-12T00:18:49.970Z,985.847
2022-09-12T00:20:49.864Z,985.889
2022-09-12T00:22:50.154Z,985.918
2022-09-12T00:24:50.272Z,985.919
2022-09-12T00:26:49.992Z,985.896
2022-09-12T00:28:50.383Z,985.898
2022-09-12T00:30:50.556Z,985.910
2022-09-12T00:32:50.585Z,985.913
2022-09-12T00:34:49.968Z,985.887
2022-09-12T00:36:50.238Z,985.854
2022-09-12T00:38:50.530Z,985.834
2022-09-12T00:40:50.728Z,985.861
2022-09-12T00:42:50.656Z,985.908
2022-09-12T00:44:50.663Z,985.917
2022-09-12T00:46:49.979Z,985.907
2022-09-12T00:48:50.006Z,985.853
2022-09-12T00:50:49.963Z,985.851
2022-09-12T00:52:50.093Z,985.806
2022-09-12T00:54:50.066Z,985.762
2022-09-12T00:56:50.605Z,985.772
2022-09-12T00:58:50.742Z,985.731
2022-09-12T01:00:50.039Z,985.715
2022-09-12T01:02:50.336Z,985.685
2022-09-12T01:04:49.935Z,985.675
2022-09-12T01:06:50.377Z,985.638
2022-09-12T01:08:50.499Z,985.647
2022-09-12T01:10:50.589Z,985.656
2022-09-12T01:12:50.638Z,985.644
2022-09-12T01:14:50.434Z,985.675
2022-09-12T01:16:50.555Z,985.647
2022-09-12T01:18:50.517Z,985.598
2022-09-12T01:20:50.455Z,985.607
2022-09-12T01:22:50.433Z,985.587
2022-09-12T01:24:50.361Z,985.545
2022-09-12T01:26:50.580Z,985.545
2022-09-12T01:28:50.511Z,985.530
2022-09-12T01:30:50.412Z,985.499
2022-09-12T01:32:50.458Z,985.518
2022-09-12T01:34:50.783Z,985.469
2022-09-12T01:36:50.003Z,985.471
2022-09-12T01:38:49.824Z,985.478
2022-09-12T01:40:50.827Z,985.478
2022-09-12T01:42:50.716Z,985.453
2022-09-12T01:44:50.565Z,985.485
2022-09-12T01:46:50.719Z,985.498
2022-09-12T01:48:50.630Z,985.516
2022-09-12T01:50:50.697Z,985.523
2022-09-12T01:52:50.650Z,985.460
2022-09-12T01:54:50.420Z,985.455
2022-09-12T01:56:50.541Z,985.392
2022-09-12T01:58:50.507Z,985.350
2022-09-12T02:00:50.636Z,985.375
2022-09-12T02:02:50.617Z,985.367
2022-09-12T02:04:50.243Z,985.361
2022-09-12T02:06:50.554Z,985.332
2022-09-12T02:08:50.064Z,985.301
2022-09-12T02:10:50.202Z,985.327
2022-09-12T02:12:50.122Z,985.311
2022-09-12T02:14:50.265Z,985.299
2022-09-12T02:16:50.601Z,985.268
2022-09-12T02:18:50.491Z,985.270
2022-09-12T02:20:50.490Z,985.295
2022-09-12T02:22:49.997Z,985.308
2022-09-12T02:24:49.836Z,985.294
2022-09-12T02:26:50.207Z,985.295
2022-09-12T02:28:50.229Z,985.294
2022-09-12T02:30:50.324Z,985.273
2022-09-12T02:32:50.199Z,985.254
2022-09-12T02:34:50.528Z,985.234
2022-09-12T02:36:50.683Z,985.207
2022-09-12T02:38:50.561Z,985.222
2022-09-12T02:40:50.527Z,985.211
2022-09-12T02:42:50.683Z,985.179
2022-09-12T02:44:50.522Z,985.194
2022-09-12T02:46:50.672Z,985.187
2022-09-12T02:48:50.674Z,985.182
2022-09-12T02:50:50.447Z,985.163
2022-09-12T02:52:50.536Z,985.202
2022-09-12T02:54:50.398Z,985.214
2022-09-12T02:56:50.687Z,985.234
2022-09-12T02:58:50.594Z,985.226
2022-09-12T03:00:50.661Z,985.230
2022-09-12T03:02:49.855Z,985.248
2022-09-12T03:04:50.188Z,985.263
2022-09-12T03:06:50.318Z,985.214
2022-09-12T03:08:50.214Z,985.219
2022-09-12T03:10:50.238Z,985.266
2022-09-12T03:12:50.293Z,985.226
2022-09-12T03:14:50.071Z,985.225
2022-09-12T03:16:50.480Z,985.148
2022-09-12T03:18:50.590Z,985.144
2022-09-12T03:20:50.469Z,985.184
2022-09-12T03:22:51.493Z,985.152
2022-09-12T03:24:50.355Z,985.158
2022-09-12T03:26:50.717Z,985.158
2022-09-12T03:28:50.672Z,985.158
2022-09-12T03:30:51.099Z,985.116
2022-09-12T03:32:50.295Z,985.113
2022-09-12T03:34:50.757Z,985.132
2022-09-12T03:36:50.009Z,985.111
2022-09-12T03:38:49.944Z,985.133
2022-09-12T03:40:55.314Z,985.162
2022-09-12T03:42:50.297Z,985.196
2022-09-12T03:44:50.249Z,985.196
2022-09-12T03:46:50.596Z,985.179
2022-09-12T03:48:50.428Z,985.283
2022-09-12T03:50:50.472Z,985.275
2022-09-12T03:52:50.212Z,985.289
2022-09-12T03:54:50.116Z,985.235
2022-09-12T03:56:50.532Z,985.241
2022-09-12T03:58:50.428Z,985.241
2022-09-12T04:00:50.643Z,985.219
2022-09-12T04:02:50.695Z,985.187
2022-09-12T04:04:49.952Z,985.134
2022-09-12T04:06:50.375Z,985.169
2022-09-12T04:08:50.345Z,985.161
2022-09-12T04:10:50.121Z,985.133
2022-09-12T04:12:49.923Z,985.169
2022-09-12T04:14:49.884Z,985.145
2022-09-12T04:16:50.175Z,985.193
2022-09-12T04:18:50.254Z,985.193
2022-09-12T04:20:50.179Z,985.212
2022-09-12T04:22:50.106Z,985.215
2022-09-12T04:24:49.892Z,985.242
2022-09-12T04:26:49.916Z,985.261
2022-09-12T04:28:49.844Z,985.284
2022-09-12T04:30:49.976Z,985.275
2022-09-12T04:32:50.153Z,985.270
2022-09-12T04:34:50.598Z,985.289
2022-09-12T04:36:49.831Z,985.296
2022-09-12T04:38:50.724Z,985.252
2022-09-12T04:40:50.463Z,985.240
2022-09-12T04:42:50.480Z,985.194
2022-09-12T04:44:50.353Z,985.192
2022-09-12T04:46:50.658Z,985.170
2022-09-12T04:48:57.330Z,985.191
2022-09-12T04:50:50.145Z,985.175
2022-09-12T04:52:50.315Z,985.192
2022-09-12T04:54:50.265Z,985.186
2022-09-12T04:56:50.516Z,985.190
2022-09-12T04:58:50.547Z,985.194
2022-09-12T05:00:50.404Z,985.199
2022-09-12T05:02:50.457Z,985.217
2022-09-12T05:04:50.168Z,985.234
2022-09-12T05:06:50.255Z,985.298
2022-09-12T05:08:50.213Z,985.299
2022-09-12T05:10:50.069Z,985.267
2022-09-12T05:12:50.043Z,985.285
2022-09-12T05:14:49.890Z,985.325
2022-09-12T05:16:50.464Z,985.325
2022-09-12T05:18:49.839Z,985.345
2022-09-12T05:20:50.663Z,985.328
2022-09-12T05:22:50.667Z,985.321
2022-09-12T05:24:51.044Z,985.342
2022-09-12T05:26:50.172Z,985.390
2022-09-12T05:28:50.115Z,985.406
2022-09-12T05:30:50.465Z,985.436
2022-09-12T05:32:49.866Z,985.486
2022-09-12T05:34:50.279Z,985.518
2022-09-12T05:36:50.639Z,985.474
2022-09-12T05:38:50.765Z,985.459
2022-09-12T05:40:50.768Z,985.479
2022-09-12T05:42:50.636Z,985.492
2022-09-12T05:44:50.323Z,985.482
2022-09-12T05:46:50.600Z,985.495
2022-09-12T05:48:56.935Z,985.473
2022-09-12T05:50:50.725Z,985.475
2022-09-12T05:52:50.549Z,985.488
2022-09-12T05:54:50.365Z,985.495
2022-09-12T05:56:50.484Z,985.520
2022-09-12T05:58:50.432Z,985.535
2022-09-12T06:00:50.404Z,985.550
2022-09-12T06:02:50.261Z,985.556
2022-09-12T06:04:50.457Z,985.568
2022-09-12T06:06:50.690Z,985.600
2022-09-12T06:08:50.431Z,985.625
2022-09-12T06:10:50.253Z,985.613
2022-09-12T06:12:50.095Z,985.593
2022-09-12T06:14:50.446Z,985.589
2022-09-12T06:16:50.928Z,985.624
2022-09-12T06:18:49.975Z,985.631
2022-09-12T06:20:49.920Z,985.625
2022-09-12T06:22:49.917Z,985.664
2022-09-12T06:24:58.182Z,985.695
2022-09-12T06:26:50.285Z,985.703
2022-09-12T06:28:50.346Z,985.721
2022-09-12T06:30:50.403Z,985.678
2022-09-12T06:32:49.798Z,985.708
2022-09-12T06:34:50.271Z,985.676
2022-09-12T06:36:50.392Z,985.667
2022-09-12T06:38:50.368Z,985.684
2022-09-12T06:40:50.362Z,985.656
2022-09-12T06:42:50.193Z,985.651
2022-09-12T06:44:50.039Z,985.660
2022-09-12T06:46:50.357Z,985.644
2022-09-12T06:48:50.357Z,985.618
2022-09-12T06:50:50.398Z,985.560
2022-09-12T06:52:50.317Z,985.532
2022-09-12T06:54:50.292Z,985.537
2022-09-12T06:56:50.557Z,985.595
2022-09-12T06:58:50.496Z,985.594
2022-09-12T07:00:50.478Z,985.600
2022-09-12T07:02:50.298Z,985.568
2022-09-12T07:04:50.722Z,985.601
2022-09-12T07:06:50.668Z,985.623
2022-09-12T07:08:50.571Z,985.623
2022-09-12T07:10:50.460Z,985.633
2022-09-12T07:12:50.510Z,985.624
2022-09-12T07:14:50.347Z,985.607
2022-09-12T07:16:50.960Z,985.611
2022-09-12T07:18:49.877Z,985.583
2022-09-12T07:20:50.694Z,985.583
2022-09-12T07:22:50.620Z,985.599
2022-09-12T07:24:50.460Z,985.593
2022-09-12T07:26:50.318Z,985.585
2022-09-12T07:28:50.116Z,985.566
2022-09-12T07:30:50.161Z,985.576
2022-09-12T07:32:50.026Z,985.589
2022-09-12T07:34:50.528Z,985.571
2022-09-12T07:36:49.849Z,985.546
2022-09-12T07:38:50.057Z,985.543
2022-09-12T07:40:50.017Z,985.538
2022-09-12T07:42:50.385Z,985.566
2022-09-12T07:44:50.270Z,985.571
2022-09-12T07:46:50.506Z,985.573
2022-09-12T07:48:50.556Z,985.521
2022-09-12T07:50:50.677Z,985.527
2022-09-12T07:52:50.772Z,985.591
2022-09-12T07:54:50.666Z,985.605
2022-09-12T07:56:50.017Z,985.617
2022-09-12T07:58:49.855Z,985.660
2022-09-12T08:00:50.126Z,985.669
2022-09-12T08:02:49.947Z,985.687
2022-09-12T08:04:50.390Z,985.641
2022-09-12T08:06:50.532Z,985.717
2022-09-12T08:08:50.341Z,985.704
2022-09-12T08:10:50.355Z,985.720
2022-09-12T08:12:50.264Z,985.769
2022-09-12T08:14:50.289Z,985.810
2022-09-12T08:16:50.412Z,985.804
2022-09-12T08:18:50.436Z,985.806
2022-09-12T08:20:50.530Z,985.783
2022-09-12T08:22:50.540Z,985.754
2022-09-12T08:24:50.702Z,985.776
2022-09-12T08:26:50.155Z,985.745
2022-09-12T08:28:50.187Z,985.796
2022-09-12T08:30:50.088Z,985.764
2022-09-12T08:32:50.238Z,985.800
2022-09-12T08:34:50.577Z,985.742
2022-09-12T08:36:50.777Z,985.767
2022-09-12T08:38:50.644Z,985.662
2022-09-12T08:40:50.541Z,985.714
2022-09-12T08:42:50.721Z,985.704
2022-09-12T08:44:50.740Z,985.640
2022-09-12T08:46:50.109Z,985.651
2022-09-12T08:48:49.945Z,985.620
2022-09-12T08:50:50.469Z,985.574
2022-09-12T08:52:50.415Z,985.564
2022-09-12T08:54:50.248Z,985.549
2022-09-12T08:56:50.437Z,985.552
2022-09-12T08:58:50.199Z,985.545
2022-09-12T09:00:50.168Z,985.562
2022-09-12T09:02:50.470Z,985.551
2022-09-12T09:04:50.187Z,985.547
2022-09-12T09:06:50.356Z,985.596
2022-09-12T09:08:50.243Z,985.603
2022-09-12T09:10:50.383Z,985.549
2022-09-12T09:12:50.344Z,985.566
2022-09-12T09:14:50.419Z,985.573
2022-09-12T09:16:50.143Z,985.578
2022-09-12T09:18:50.154Z,985.558
2022-09-12T09:20:50.094Z,985.554
2022-09-12T09:22:50.756Z,985.503
2022-09-12T09:24:50.593Z,985.508
2022-09-12T09:26:49.792Z,985.505
2022-09-12T09:28:49.939Z,985.504
2022-09-12T09:30:50.326Z,985.435
2022-09-12T09:32:50.522Z,985.405
2022-09-12T09:34:50.000Z,985.419
2022-09-12T09:36:50.223Z,985.397
2022-09-12T09:38:50.141Z,985.329
2022-09-12T09:40:50.176Z,985.318
2022-09-12T09:42:50.080Z,985.290
2022-09-12T09:44:50.099Z,985.279
2022-09-12T09:46:50.168Z,985.234
2022-09-12T09:48:49.977Z,985.252
2022-09-12T09:50:49.988Z,985.277
2022-09-12T09:52:49.913Z,985.228
2022-09-12T09:54:49.883Z,985.216
2022-09-12T09:56:49.897Z,985.172
2022-09-12T09:58:50.200Z,985.149
2022-09-12T10:00:56.973Z,985.144
2022-09-12T10:02:50.141Z,985.127
2022-09-12T10:04:50.723Z,985.102
2022-09-12T10:06:50.112Z,985.142
2022-09-12T10:08:50.305Z,985.128
2022-09-12T10:10:50.093Z,985.076
2022-09-12T10:12:50.258Z,985.089
2022-09-12T10:14:50.246Z,985.100
2022-09-12T10:16:50.202Z,985.052
2022-09-12T10:18:49.998Z,985.072
2022-09-12T10:20:49.804Z,985.072
2022-09-12T10:22:49.989Z,985.053
2022-09-12T10:24:50.053Z,985.002
2022-09-12T10:26:57.290Z,985.016
2022-09-12T10:28:50.235Z,984.992
2022-09-12T10:30:50.327Z,984.980
2022-09-12T10:32:50.407Z,984.951
2022-09-12T10:34:50.748Z,984.958
2022-09-12T10:36:50.020Z,985.030
2022-09-12T10:38:50.091Z,984.978
2022-09-12T10:40:50.166Z,984.980
2022-09-12T10:42:50.161Z,985.021
2022-09-12T10:44:50.208Z,984.999
2022-09-12T10:46:50.683Z,984.945
2022-09-12T10:48:50.658Z,984.900
2022-09-12T10:50:50.804Z,984.886
2022-09-12T10:52:49.812Z,984.902
2022-09-12T10:54:50.756Z,984.832
2022-09-12T10:56:49.951Z,984.814
2022-09-12T10:58:50.205Z,984.832
2022-09-12T11:00:50.090Z,984.812
2022-09-12T11:02:50.153Z,984.773
2022-09-12T11:04:50.630Z,984.792
2022-09-12T11:06:49.984Z,984.812
2022-09-12T11:08:49.997Z,984.832
2022-09-12T11:10:50.746Z,984.845
2022-09-12T11:12:50.563Z,984.833
2022-09-12T11:14:50.474Z,984.795
2022-09-12T11:16:49.829Z,984.771
2022-09-12T11:18:50.738Z,984.768
2022-09-12T11:20:50.556Z,984.719
2022-09-12T11:22:50.676Z,984.649
2022-09-12T11:24:50.672Z,984.667
2022-09-12T11:26:50.145Z,984.642
2022-09-12T11:28:50.051Z,984.624
2022-09-12T11:30:50.069Z,984.571
2022-09-12T11:32:50.274Z,984.554
2022-09-12T11:34:49.864Z,984.545
2022-09-12T11:36:49.866Z,984.550
2022-09-12T11:38:49.839Z,984.572
2022-09-12T11:40:50.683Z,984.579
2022-09-12T11:42:50.667Z,984.580
2022-09-12T11:44:50.507Z,984.515
2022-09-12T11:46:52.561Z,984.485
2022-09-12T11:48:50.539Z,984.444
2022-09-12T11:50:50.508Z,984.413
2022-09-12T11:52:50.624Z,984.417
2022-09-12T11:54:54.368Z,984.401
2022-09-12T11:56:50.540Z,984.408
2022-09-12T11:58:50.521Z,984.394
2022-09-12T12:00:50.489Z,984.427
2022-09-12T12:02:50.639Z,984.420
2022-09-12T12:04:50.059Z,984.381
2022-09-12T12:06:50.197Z,984.372
2022-09-12T12:08:50.079Z,984.337
2022-09-12T12:10:50.189Z,984.332
2022-09-12T12:12:50.160Z,984.293
2022-09-12T12:14:49.994Z,984.283
2022-09-12T12:16:50.240Z,984.250
2022-09-12T12:18:50.359Z,984.228
2022-09-12T12:20:50.196Z,984.184
2022-09-12T12:22:50.220Z,984.197
2022-09-12T12:24:50.026Z,984.169
2022-09-12T12:26:50.127Z,984.205
2022-09-12T12:28:50.117Z,984.149
2022-09-12T12:30:50.166Z,984.182
2022-09-12T12:32:50.555Z,984.130
2022-09-12T12:34:49.889Z,984.103
2022-09-12T12:36:50.499Z,984.099
2022-09-12T12:38:50.283Z,984.117
2022-09-12T12:40:50.083Z,984.041
2022-09-12T12:42:50.172Z,984.086
2022-09-12T12:44:49.982Z,984.086
2022-09-12T12:46:50.276Z,984.059
2022-09-12T12:48:50.049Z,984.020
2022-09-12T12:50:50.281Z,983.995
2022-09-12T12:52:50.126Z,983.958
2022-09-12T12:54:50.105Z,983.967
2022-09-12T12:56:50.440Z,983.965
2022-09-12T12:58:50.410Z,983.922
2022-09-12T13:00:50.431Z,983.941
2022-09-12T13:02:50.677Z,983.939
2022-09-12T13:04:50.011Z,983.960
2022-09-12T13:06:49.973Z,983.960
2022-09-12T13:08:50.071Z,983.893
2022-09-12T13:10:49.901Z,983.849
2022-09-12T13:12:50.001Z,983.819
2022-09-12T13:14:49.820Z,983.831
2022-09-12T13:16:49.913Z,983.745
2022-09-12T13:18:49.950Z,983.734
2022-09-12T13:20:50.640Z,983.690
2022-09-12T13:22:50.511Z,983.682
2022-09-12T13:24:50.541Z,983.643
2022-09-12T13:26:50.580Z,983.658
2022-09-12T13:28:50.660Z,983.667
2022-09-12T13:30:50.582Z,983.643
2022-09-12T13:32:49.822Z,983.629
2022-09-12T13:34:50.216Z,983.650
2022-09-12T13:36:50.510Z,983.612
2022-09-12T13:38:50.393Z,983.593
2022-09-12T13:40:50.368Z,983.558
2022-09-12T13:42:50.431Z,983.570
2022-09-12T13:44:50.167Z,983.485
2022-09-12T13:46:50.238Z,983.457
2022-09-12T13:48:50.144Z,983.439
2022-09-12T13:50:50.218Z,983.423
2022-09-12T13:52:50.445Z,983.394
2022-09-12T13:54:50.300Z,983.389
2022-09-12T13:56:50.474Z,983.381
2022-09-12T13:58:50.444Z,983.379
2022-09-12T14:00:50.281Z,983.393
2022-09-12T14:02:50.578Z,983.418
2022-09-12T14:04:50.094Z,983.417
2022-09-12T14:06:50.263Z,983.426
2022-09-12T14:08:50.267Z,983.402
2022-09-12T14:10:50.640Z,983.364
2022-09-12T14:12:50.732Z,983.338
2022-09-12T14:14:50.665Z,983.356
2022-09-12T14:16:50.003Z,983.342
2022-09-12T14:18:49.981Z,983.315
2022-09-12T14:20:49.895Z,983.338
2022-09-12T14:22:51.529Z,983.263
2022-09-12T14:24:50.148Z,983.305
2022-09-12T14:26:50.073Z,983.292
2022-09-12T14:28:50.059Z,983.242
2022-09-12T14:30:50.985Z,983.192
2022-09-12T14:32:50.717Z,983.248
2022-09-12T14:34:50.455Z,983.162
2022-09-12T14:36:49.853Z,983.091
2022-09-12T14:38:50.549Z,983.083
2022-09-12T14:40:50.342Z,983.078
2022-09-12T14:42:50.459Z,983.050
2022-09-12T14:44:50.186Z,983.079
2022-09-12T14:46:50.567Z,983.060
2022-09-12T14:48:49.819Z,983.052
2022-09-12T14:50:50.749Z,982.996
2022-09-12T14:52:50.718Z,983.005
2022-09-12T14:54:50.730Z,983.056
2022-09-12T14:56:50.082Z,983.055
2022-09-12T14:58:50.237Z,983.045
2022-09-12T15:00:50.601Z,983.017
2022-09-12T15:02:50.261Z,982.956
2022-09-12T15:04:50.598Z,982.938
2022-09-12T15:06:50.063Z,982.963
2022-09-12T15:08:50.371Z,982.938
2022-09-12T15:10:50.398Z,982.895
2022-09-12T15:12:50.401Z,982.897
2022-09-12T15:14:50.209Z,982.838
2022-09-12T15:16:50.356Z,982.839
2022-09-12T15:18:50.520Z,982.867
2022-09-12T15:20:50.369Z,982.825
2022-09-12T15:22:50.314Z,982.799
2022-09-12T15:24:50.175Z,982.844
2022-09-12T15:26:50.688Z,982.841
2022-09-12T15:28:50.540Z,982.841
2022-09-12T15:30:50.610Z,982.797
2022-09-12T15:32:50.123Z,982.763
2022-09-12T15:34:50.428Z,982.738
2022-09-12T15:36:50.553Z,982.678
2022-09-12T15:38:50.328Z,982.678
2022-09-12T15:40:50.393Z,982.709
2022-09-12T15:42:50.207Z,982.713
2022-09-12T15:44:50.381Z,982.761
2022-09-12T15:46:50.657Z,982.721
2022-09-12T15:48:50.458Z,982.706
2022-09-12T15:50:50.217Z,982.627
2022-09-12T15:52:50.270Z,982.618
2022-09-12T15:54:50.170Z,982.502
2022-09-12T15:56:50.096Z,982.503
2022-09-12T15:59:00.439Z,982.527
2022-09-12T16:00:50.491Z,982.540
2022-09-12T16:02:50.826Z,982.536
2022-09-12T16:04:50.323Z,982.604
2022-09-12T16:06:50.575Z,982.583
2022-09-12T16:08:50.535Z,982.615
2022-09-12T16:10:50.502Z,982.642
2022-09-12T16:12:50.428Z,982.646
2022-09-12T16:14:50.320Z,982.611
2022-09-12T16:16:50.458Z,982.568
2022-09-12T16:18:50.289Z,982.559
2022-09-12T16:20:50.254Z,982.531
2022-09-12T16:22:50.323Z,982.493
2022-09-12T16:24:50.141Z,982.494
2022-09-12T16:26:50.698Z,982.533
2022-09-12T16:28:49.940Z,982.445
2022-09-12T16:30:50.970Z,982.432
2022-09-12T16:32:50.162Z,982.391
2022-09-12T16:34:49.821Z,982.338
2022-09-12T16:36:49.892Z,982.308
2022-09-12T16:38:49.954Z,982.304
2022-09-12T16:40:50.789Z,982.342
2022-09-12T16:42:50.730Z,982.330
2022-09-12T16:44:50.679Z,982.291
2022-09-12T16:46:50.193Z,982.233
2022-09-12T16:48:53.137Z,982.243
2022-09-12T16:50:50.532Z,982.216
2022-09-12T16:52:50.328Z,982.242
2022-09-12T16:54:50.374Z,982.193
2022-09-12T16:56:50.591Z,982.141
2022-09-12T16:58:50.900Z,982.199
2022-09-12T17:00:50.349Z,982.118
2022-09-12T17:02:50.382Z,982.112
2022-09-12T17:04:49.953Z,982.201
2022-09-12T17:06:50.034Z,982.173
2022-09-12T17:08:50.227Z,982.161
2022-09-12T17:10:50.137Z,982.115
2022-09-12T17:12:50.109Z,982.066
2022-09-12T17:14:50.128Z,982.084
2022-09-12T17:16:52.456Z,982.078
2022-09-12T17:18:50.365Z,982.069
2022-09-12T17:20:50.259Z,982.077
2022-09-12T17:22:49.960Z,982.088
2022-09-12T17:24:49.826Z,982.097
2022-09-12T17:26:49.936Z,982.064
2022-09-12T17:28:50.703Z,982.040
2022-09-12T17:30:50.086Z,982.030
2022-09-12T17:32:49.966Z,982.040
2022-09-12T17:34:50.216Z,982.027
2022-09-12T17:36:50.246Z,982.063
2022-09-12T17:38:50.351Z,982.075
2022-09-12T17:41:00.354Z,982.075
2022-09-12T17:42:50.264Z,982.103
2022-09-12T17:44:50.103Z,982.107
2022-09-12T17:46:50.567Z,982.111
2022-09-12T17:48:49.814Z,982.163
2022-09-12T17:50:50.677Z,982.189
2022-09-12T17:52:50.459Z,982.166
2022-09-12T17:54:50.422Z,982.171
2022-09-12T17:56:50.591Z,982.223
2022-09-12T17:58:50.582Z,982.278
2022-09-12T18:00:50.284Z,982.314
2022-09-12T18:02:50.369Z,982.334
2022-09-12T18:04:49.865Z,982.322
2022-09-12T18:06:50.041Z,982.325
2022-09-12T18:08:50.128Z,982.284
2022-09-12T18:10:49.984Z,982.270
2022-09-12T18:12:49.876Z,982.242
2022-09-12T18:14:49.864Z,982.251
2022-09-12T18:16:49.934Z,982.270
2022-09-12T18:18:50.013Z,982.299
2022-09-12T18:20:50.022Z,982.273
2022-09-12T18:22:50.190Z,982.307
2022-09-12T18:24:49.805Z,982.294
2022-09-12T18:26:50.788Z,982.321
2022-09-12T18:28:50.796Z,982.312
2022-09-12T18:30:50.794Z,982.312
2022-09-12T18:32:49.920Z,982.281
2022-09-12T18:34:50.419Z,982.262
2022-09-12T18:36:50.673Z,982.237
2022-09-12T18:38:50.586Z,982.271
2022-09-12T18:40:50.599Z,982.265
2022-09-12T18:42:50.597Z,982.265
2022-09-12T18:44:50.396Z,982.307
2022-09-12T18:46:51.040Z,982.302
2022-09-12T18:48:50.148Z,982.295
2022-09-12T18:50:50.135Z,982.267
2022-09-12T18:52:50.007Z,982.277
2022-09-12T18:54:50.651Z,982.289
2022-09-12T18:56:50.623Z,982.257
2022-09-12T18:58:50.687Z,982.291
2022-09-12T19:00:50.709Z,982.258
2022-09-12T19:02:50.519Z,982.263
2022-09-12T19:04:50.762Z,982.274
2022-09-12T19:06:50.852Z,982.284
2022-09-12T19:08:49.781Z,982.329
2022-09-12T19:10:50.691Z,982.294
2022-09-12T19:12:50.593Z,982.248
2022-09-12T19:14:50.586Z,982.242
2022-09-12T19:16:49.820Z,982.262
2022-09-12T19:18:50.793Z,982.220
2022-09-12T19:20:49.835Z,982.235
2022-09-12T19:22:50.769Z,982.242
2022-09-12T19:24:50.237Z,982.212
2022-09-12T19:26:50.540Z,982.202
2022-09-12T19:28:50.475Z,982.199
2022-09-12T19:30:50.585Z,982.219
2022-09-12T19:32:50.571Z,982.189
2022-09-12T19:34:49.823Z,982.174
2022-09-12T19:36:49.865Z,982.186
2022-09-12T19:38:49.884Z,982.124
2022-09-12T19:40:50.742Z,982.118
2022-09-12T19:42:49.907Z,982.105
2022-09-12T19:44:50.763Z,982.068
2022-09-12T19:46:50.698Z,982.072
2022-09-12T19:48:50.607Z,982.064
2022-09-12T19:50:50.597Z,982.080
2022-09-12T19:52:50.388Z,982.073
2022-09-12T19:54:50.377Z,982.122
2022-09-12T19:56:50.602Z,982.153
2022-09-12T19:58:57.119Z,982.224
2022-09-12T20:00:50.288Z,982.273
2022-09-12T20:02:50.135Z,982.273
2022-09-12T20:04:50.607Z,982.231
2022-09-12T20:06:49.894Z,982.216
2022-09-12T20:08:50.206Z,982.245
2022-09-12T20:10:57.383Z,982.197
2022-09-12T20:12:50.309Z,982.210
2022-09-12T20:14:50.109Z,982.228
2022-09-12T20:16:50.225Z,982.226
2022-09-12T20:18:50.679Z,982.214
2022-09-12T20:20:50.496Z,982.202
2022-09-12T20:22:50.436Z,982.196
2022-09-12T20:24:50.369Z,982.228
2022-09-12T20:26:50.670Z,982.189
2022-09-12T20:28:50.793Z,982.142
2022-09-12T20:30:50.701Z,982.119
2022-09-12T20:32:50.639Z,982.156
2022-09-12T20:34:50.082Z,982.170
2022-09-12T20:36:50.209Z,982.195
2022-09-12T20:38:50.357Z,982.231
2022-09-12T20:40:50.276Z,982.232
2022-09-12T20:42:50.321Z,982.278
2022-09-12T20:44:50.071Z,982.289
2022-09-12T20:46:50.380Z,982.294
2022-09-12T20:48:50.458Z,982.234
2022-09-12T20:50:50.440Z,982.215
2022-09-12T20:52:50.573Z,982.149
2022-09-12T20:54:50.406Z,982.140
2022-09-12T20:56:50.703Z,982.147
2022-09-12T20:58:50.692Z,982.161
2022-09-12T21:00:50.530Z,982.211
2022-09-12T21:02:50.806Z,982.211
2022-09-12T21:04:50.443Z,982.110
2022-09-12T21:06:50.624Z,982.102
2022-09-12T21:08:50.620Z,982.070
2022-09-12T21:10:50.619Z,982.012
2022-09-12T21:12:50.498Z,982.035
2022-09-12T21:14:50.262Z,982.021
2022-09-12T21:16:50.351Z,982.064
2022-09-12T21:18:50.619Z,982.036
2022-09-12T21:20:50.423Z,982.065
2022-09-12T21:22:50.346Z,982.071
2022-09-12T21:24:50.272Z,982.078
2022-09-12T21:26:50.582Z,982.061
2022-09-12T21:28:50.566Z,982.002
2022-09-12T21:30:50.699Z,982.002
2022-09-12T21:32:49.995Z,981.941
2022-09-12T21:34:50.489Z,981.951
2022-09-12T21:36:49.962Z,981.944
2022-09-12T21:38:49.934Z,981.948
2022-09-12T21:40:49.916Z,981.948
2022-09-12T21:42:50.726Z,981.998
2022-09-12T21:44:50.545Z,982.020
2022-09-12T21:46:50.927Z,982.031
2022-09-12T21:48:49.800Z,982.065
2022-09-12T21:50:50.607Z,981.992
2022-09-12T21:52:50.518Z,981.943
2022-09-12T21:54:50.520Z,981.949
2022-09-12T21:56:49.884Z,981.927
2022-09-12T21:58:50.708Z,981.874
2022-09-12T22:00:50.974Z,981.849
2022-09-12T22:02:50.354Z,981.900
2022-09-12T22:04:50.693Z,981.869
2022-09-12T22:06:49.919Z,981.861
2022-09-12T22:08:50.759Z,981.817
2022-09-12T22:10:50.710Z,981.830
2022-09-12T22:12:50.569Z,981.748
2022-09-12T22:14:50.670Z,981.745
2022-09-12T22:16:50.740Z,981.680
2022-09-12T22:18:50.669Z,981.696
2022-09-12T22:20:50.727Z,981.669
2022-09-12T22:22:50.678Z,981.651
2022-09-12T22:24:50.487Z,981.628
2022-09-12T22:26:50.628Z,981.612
2022-09-12T22:28:50.575Z,981.619
2022-09-12T22:30:50.509Z,981.609
2022-09-12T22:32:50.133Z,981.592
2022-09-12T22:34:50.586Z,981.581
2022-09-12T22:36:50.743Z,981.540
2022-09-12T22:38:50.027Z,981.508
2022-09-12T22:40:50.267Z,981.510
2022-09-12T22:42:50.228Z,981.526
2022-09-12T22:44:49.999Z,981.510
2022-09-12T22:46:50.407Z,981.540
2022-09-12T22:48:50.426Z,981.552
2022-09-12T22:50:50.194Z,981.603
2022-09-12T22:52:50.125Z,981.628
2022-09-12T22:54:50.019Z,981.522
2022-09-12T22:56:50.178Z,981.486
2022-09-12T22:58:50.119Z,981.494
2022-09-12T23:00:50.026Z,981.436
2022-09-12T23:02:50.069Z,981.429
2022-09-12T23:04:50.519Z,981.432
2022-09-12T23:06:50.670Z,981.339
2022-09-12T23:08:50.637Z,981.298
2022-09-12T23:10:50.423Z,981.339
2022-09-12T23:12:50.378Z,981.301
2022-09-12T23:14:50.287Z,981.209
2022-09-12T23:16:50.493Z,981.173
2022-09-12T23:18:50.403Z,981.173
2022-09-12T23:20:50.064Z,981.108
2022-09-12T23:22:49.894Z,981.090
2022-09-12T23:24:49.955Z,981.122
2022-09-12T23:26:50.298Z,981.109
2022-09-12T23:28:50.509Z,981.169
2022-09-12T23:30:50.601Z,981.212
2022-09-12T23:32:49.796Z,981.249
2022-09-12T23:34:50.243Z,981.299
2022-09-12T23:36:50.430Z,981.257
2022-09-12T23:38:50.455Z,981.192
2022-09-12T23:40:50.390Z,981.153
2022-09-12T23:42:50.686Z,981.108
2022-09-12T23:44:50.777Z,981.133
2022-09-12T23:46:50.132Z,981.127
2022-09-12T23:48:50.445Z,981.123
2022-09-12T23:50:50.557Z,981.188
2022-09-12T23:52:50.614Z,981.225
2022-09-12T23:54:50.616Z,981.277
2022-09-12T23:56:49.964Z,981.212
2022-09-12T23:58:50.041Z,981.229
